Time;durP1;ratioP1;P1;durP2;ratioP2;P2;SDS_P1;SDS_P2;PMS_P1;PMS_P2;Temp;Humidity;BMP_temperature;BMP_pressure;BME280_temperature;BME280_humidity;BME280_pressure;Samples;Min_cycle;Max_cycle;Signal;HPM_P1;HPM_P2
2021/03/28 00:01:07;;;;;;;10.75;3.80;;;;;;;6.39;57.92;100708.56;5008823;28;20038;-75
2021/03/28 00:03:52;;;;;;;11.77;3.85;;;;;;;6.43;57.90;100710.25;4993955;28;20034;-75
2021/03/28 00:06:27;;;;;;;16.27;4.13;;;;;;;6.46;57.53;100722.44;4991813;28;20093;-75
2021/03/28 00:09:15;;;;;;;11.32;3.20;;;;;;;6.42;57.45;100720.75;5006678;28;20112;-76
2021/03/28 00:12:02;;;;;;;9.88;3.65;;;;;;;6.47;57.76;100718.03;4991354;28;20037;-75
2021/03/28 00:14:51;;;;;;;9.65;3.92;;;;;;;6.51;57.73;100717.13;4990763;28;20098;-75
2021/03/28 00:17:20;;;;;;;16.88;5.65;;;;;;;6.50;57.10;100705.78;4992825;28;20026;-75
2021/03/28 00:19:59;;;;;;;10.23;3.53;;;;;;;6.53;57.59;100702.25;4992123;28;20027;-74
2021/03/28 00:22:35;;;;;;;12.43;4.13;;;;;;;6.57;57.25;100703.88;4973450;28;20122;-75
2021/03/28 00:25:11;;;;;;;15.38;4.43;;;;;;;6.62;57.26;100712.53;4973144;28;20041;-75
2021/03/28 00:27:43;;;;;;;20.40;5.18;;;;;;;6.59;56.80;100709.97;4972854;28;20106;-74
2021/03/28 00:30:28;;;;;;;6.78;3.53;;;;;;;6.64;57.09;100702.88;4972960;28;20039;-75
2021/03/28 00:33:08;;;;;;;8.32;2.58;;;;;;;6.68;56.79;100706.34;4986580;28;20156;-74
2021/03/28 00:35:48;;;;;;;17.70;4.22;;;;;;;6.72;56.46;100702.75;4972634;28;20104;-75
2021/03/28 00:38:19;;;;;;;8.60;3.45;;;;;;;6.66;56.27;100699.34;4972702;28;20035;-74
2021/03/28 00:41:05;;;;;;;10.00;3.78;;;;;;;6.69;56.34;100701.03;4972500;28;20049;-75
2021/03/28 00:43:57;;;;;;;9.07;3.38;;;;;;;6.73;56.36;100701.88;4973015;28;20039;-74
2021/03/28 00:46:42;;;;;;;13.32;3.92;;;;;;;6.74;56.74;100699.19;4972579;28;20035;-74
2021/03/28 00:49:23;;;;;;;9.63;3.35;;;;;;;6.73;56.61;100712.34;4972897;28;20069;-74
2021/03/28 00:51:58;;;;;;;10.15;2.95;;;;;;;6.73;56.25;100694.88;4975560;28;20415;-76
2021/03/28 00:54:46;;;;;;;7.88;3.38;;;;;;;6.78;56.08;100700.03;4974575;28;20031;-75
2021/03/28 00:57:38;;;;;;;13.32;3.53;;;;;;;6.78;56.45;100694.78;4958920;28;20063;-76
2021/03/28 01:00:18;;;;;;;17.23;4.07;;;;;;;6.79;56.21;100699.13;4986124;28;20458;-75
2021/03/28 01:03:03;;;;;;;9.55;2.95;;;;;;;6.82;56.40;100697.31;4960313;28;20463;-75
2021/03/28 01:05:50;;;;;;;5.90;2.50;;;;;;;6.86;56.45;100705.97;4972764;28;20054;-75
2021/03/28 01:08:36;;;;;;;10.27;3.25;;;;;;;6.90;55.79;100701.56;4972902;28;20059;-76
2021/03/28 01:11:35;;;;;;;6.32;2.80;;;;;;;6.92;56.24;100687.53;4971131;28;20128;-75
2021/03/28 01:14:20;;;;;;;13.23;2.50;;;;;;;6.90;55.97;100673.56;4973060;28;20027;-75
2021/03/28 01:17:30;;;;;;;10.47;3.57;;;;;;;6.89;56.38;100679.69;4970576;28;20031;-75
2021/03/28 01:20:11;;;;;;;13.23;2.70;;;;;;;6.87;56.23;100676.25;4971606;28;20093;-75
2021/03/28 01:22:49;;;;;;;11.13;3.90;;;;;;;6.83;56.34;100666.72;4971947;28;20039;-74
2021/03/28 01:25:26;;;;;;;6.82;3.40;;;;;;;6.79;56.53;100675.53;4972248;28;20031;-74
2021/03/28 01:28:01;;;;;;;5.28;2.22;;;;;;;6.74;56.49;100666.91;4990164;28;20039;-75
2021/03/28 01:30:44;;;;;;;8.95;3.72;;;;;;;6.71;56.73;100665.19;4991614;28;20034;-75
2021/03/28 01:33:17;;;;;;;7.38;2.97;;;;;;;6.71;56.80;100666.97;4991081;28;20034;-76
2021/03/28 01:36:02;;;;;;;9.15;3.28;;;;;;;6.62;56.96;100665.38;4991888;28;20112;-76
2021/03/28 01:38:31;;;;;;;8.27;2.78;;;;;;;6.60;57.27;100657.56;4991652;28;20037;-75
2021/03/28 01:41:05;;;;;;;24.40;3.65;;;;;;;6.58;57.35;100645.38;4991172;28;20402;-74
2021/03/28 01:43:54;;;;;;;11.48;2.75;;;;;;;6.53;56.86;100644.59;4990065;28;20039;-77
2021/03/28 01:46:58;;;;;;;8.05;2.85;;;;;;;6.51;57.27;100639.38;4987335;28;20105;-75
2021/03/28 01:49:56;;;;;;;12.70;3.35;;;;;;;6.47;57.29;100632.47;4990264;28;20093;-76
2021/03/28 01:52:24;;;;;;;9.68;2.47;;;;;;;6.44;57.75;100633.38;4988799;28;20035;-75
2021/03/28 01:55:08;;;;;;;11.13;3.53;;;;;;;6.43;57.76;100625.56;5005688;28;20038;-76
2021/03/28 01:57:52;;;;;;;10.32;2.70;;;;;;;6.41;57.33;100627.34;4990154;28;20123;-75
2021/03/28 02:00:17;;;;;;;11.30;2.55;;;;;;;6.37;57.71;100642.25;4990348;28;20029;-75
2021/03/28 02:02:51;;;;;;;9.30;2.90;;;;;;;6.36;57.37;100632.66;4990958;28;20034;-76
2021/03/28 02:05:24;;;;;;;10.50;3.63;;;;;;;6.34;57.57;100625.75;4991027;28;20096;-75
2021/03/28 02:08:08;;;;;;;8.60;2.83;;;;;;;6.30;57.52;100631.91;4991457;28;20034;-75
2021/03/28 02:11:08;;;;;;;7.78;2.40;;;;;;;6.26;57.92;100635.50;4989437;28;20038;-76
2021/03/28 02:13:54;;;;;;;11.25;3.50;;;;;;;6.24;58.06;100630.28;4990594;28;20045;-75
2021/03/28 02:16:52;;;;;;;6.47;2.53;;;;;;;6.26;57.97;100636.34;5002307;28;20121;-76
2021/03/28 02:19:26;;;;;;;6.88;2.10;;;;;;;6.23;58.47;100633.81;4988223;28;20096;-75
2021/03/28 02:22:04;;;;;;;8.95;2.63;;;;;;;6.20;57.79;100633.84;4986780;28;20038;-76
2021/03/28 02:24:51;;;;;;;8.68;3.53;;;;;;;6.20;58.37;100634.72;4990969;28;20109;-77
2021/03/28 02:27:37;;;;;;;14.77;3.28;;;;;;;6.19;58.40;100640.81;4990613;28;20086;-75
2021/03/28 02:30:34;;;;;;;6.15;3.08;;;;;;;6.18;58.74;100635.63;4990258;28;20042;-75
2021/03/28 02:33:40;;;;;;;7.57;2.72;;;;;;;6.21;58.72;100633.81;4997466;28;20398;-74
2021/03/28 02:36:16;;;;;;;8.60;2.47;;;;;;;6.24;58.76;100633.75;4989693;28;20047;-75
2021/03/28 02:38:44;;;;;;;9.38;2.50;;;;;;;6.23;58.78;100631.19;4988970;28;20150;-76
2021/03/28 02:41:35;;;;;;;5.45;2.10;;;;;;;6.24;58.97;100639.00;4990696;28;20033;-74
2021/03/28 02:44:16;;;;;;;11.10;2.22;;;;;;;6.27;59.28;100640.69;5002752;28;20034;-76
2021/03/28 02:46:50;;;;;;;7.70;2.13;;;;;;;6.31;58.88;100638.91;4990092;28;20126;-75
2021/03/28 02:49:51;;;;;;;10.00;3.28;;;;;;;6.32;59.34;100638.00;4987942;28;20035;-76
2021/03/28 02:52:44;;;;;;;9.77;2.10;;;;;;;6.34;58.88;100633.59;4988570;28;20042;-76
2021/03/28 02:55:36;;;;;;;10.25;3.85;;;;;;;6.34;59.54;100636.22;5004893;28;20054;-76
2021/03/28 02:58:07;;;;;;;11.20;2.33;;;;;;;6.32;59.38;100644.09;4988295;28;20065;-76
2021/03/28 03:00:57;;;;;;;7.30;2.47;;;;;;;6.29;59.44;100640.66;4988950;28;20038;-75
2021/03/28 03:03:35;;;;;;;7.72;2.88;;;;;;;6.27;60.13;100640.69;4991534;28;20402;-76
2021/03/28 03:06:15;;;;;;;10.65;2.55;;;;;;;6.27;59.63;100645.06;4993142;28;20034;-75
2021/03/28 03:08:41;;;;;;;7.70;2.20;;;;;;;6.30;59.85;100642.38;4991370;28;20046;-76
2021/03/28 03:11:19;;;;;;;7.45;2.08;;;;;;;6.30;60.29;100639.78;4994930;28;20114;-75
2021/03/28 03:14:05;;;;;;;10.75;3.38;;;;;;;6.28;60.42;100639.81;4998227;28;20385;-76
2021/03/28 03:16:42;;;;;;;10.52;3.00;;;;;;;6.26;60.37;100640.75;4996665;28;20528;-75
2021/03/28 03:20:01;;;;;;;6.10;2.70;;;;;;;6.31;60.73;100636.28;5009329;28;20070;-75
2021/03/28 03:22:52;;;;;;;15.65;2.92;;;;;;;6.27;61.04;100631.97;4888991;29;20044;-76
2021/03/28 03:25:35;;;;;;;8.98;2.97;;;;;;;6.28;61.22;100637.19;4892404;29;20130;-75
2021/03/28 03:28:26;;;;;;;11.65;2.63;;;;;;;6.31;61.12;100637.13;4958539;28;20092;-76
2021/03/28 03:31:06;;;;;;;18.20;4.20;;;;;;;6.31;60.92;100645.00;4970059;28;20131;-76
2021/03/28 03:34:08;;;;;;;6.32;3.22;;;;;;;6.35;61.57;100640.53;4970418;28;20035;-75
2021/03/28 03:36:52;;;;;;;11.07;3.70;;;;;;;6.32;61.29;100638.00;4971358;28;20034;-76
2021/03/28 03:39:33;;;;;;;7.22;2.78;;;;;;;6.33;61.42;100631.88;4988383;28;20110;-75
2021/03/28 03:42:28;;;;;;;13.95;3.17;;;;;;;6.36;61.62;100631.81;4970062;28;20034;-76
2021/03/28 03:45:31;;;;;;;9.05;3.33;;;;;;;6.37;61.48;100639.63;4990750;28;20069;-74
2021/03/28 03:48:18;;;;;;;6.00;2.53;;;;;;;6.41;61.92;100637.84;4995956;28;20030;-75
2021/03/28 03:50:59;;;;;;;5.47;2.13;;;;;;;6.45;61.88;100626.41;4977241;28;20089;-74
2021/03/28 03:53:48;;;;;;;10.35;4.03;;;;;;;6.47;61.79;100639.47;4973120;28;20142;-73
2021/03/28 03:56:17;;;;;;;7.30;2.25;;;;;;;6.49;62.15;100632.44;4973841;28;20043;-74
2021/03/28 03:59:03;;;;;;;6.72;3.25;;;;;;;6.54;61.78;100635.84;4973387;28;20129;-74
2021/03/28 04:01:36;;;;;;;10.63;2.72;;;;;;;6.56;61.61;100636.69;4973051;28;20049;-76
2021/03/28 04:04:30;;;;;;;5.90;2.83;;;;;;;6.57;61.68;100633.16;4973064;28;20038;-74
2021/03/28 04:07:21;;;;;;;7.88;3.35;;;;;;;6.57;61.92;100639.28;4987851;28;20034;-75
2021/03/28 04:10:03;;;;;;;5.78;2.47;;;;;;;6.62;61.60;100640.06;4972859;28;20169;-75
2021/03/28 04:12:47;;;;;;;6.00;3.45;;;;;;;6.66;62.16;100639.09;4972998;28;20121;-74
2021/03/28 04:15:34;;;;;;;6.28;2.55;;;;;;;6.69;62.09;100638.16;4988050;28;20090;-76
2021/03/28 04:18:05;;;;;;;13.40;4.30;;;;;;;6.73;61.80;100636.34;4972845;28;20498;-76
2021/03/28 04:21:18;;;;;;;9.32;3.50;;;;;;;6.79;61.63;100639.72;4990744;28;20709;-76
2021/03/28 04:23:43;;;;;;;18.25;5.43;;;;;;;6.77;61.95;100633.66;4932657;29;20710;-76
2021/03/28 04:26:38;;;;;;;12.98;3.85;;;;;;;6.81;61.87;100637.91;4968266;28;20031;-74
2021/03/28 04:29:09;;;;;;;10.13;3.75;;;;;;;6.78;61.86;100635.38;4975354;28;20049;-75
2021/03/28 04:31:40;;;;;;;10.73;3.45;;;;;;;6.78;62.08;100637.13;4974726;28;20035;-75
2021/03/28 04:34:53;;;;;;;7.95;2.78;;;;;;;6.82;61.49;100641.44;4975652;28;20031;-75
2021/03/28 04:37:26;;;;;;;11.43;3.58;;;;;;;6.84;61.79;100650.97;4951561;29;20045;-75
2021/03/28 04:40:02;;;;;;;8.50;2.92;;;;;;;6.85;61.84;100646.59;4966838;28;20034;-75
2021/03/28 04:42:32;;;;;;;;;;;;;;;6.87;61.96;100642.19;4993029;28;20109;-75
2021/03/28 04:45:19;;;;;;;7.07;2.42;;;;;;;6.86;61.79;100645.69;4992384;28;19933;-75
2021/03/28 04:48:20;;;;;;;11.07;2.88;;;;;;;6.86;61.78;100648.31;4992409;28;20058;-75
2021/03/28 04:51:03;;;;;;;14.23;2.90;;;;;;;6.89;61.84;100645.63;4957525;28;20035;-75
2021/03/28 04:53:47;;;;;;;20.92;5.25;;;;;;;6.90;61.73;100650.00;4991268;28;20034;-75
2021/03/28 04:56:37;;;;;;;9.13;4.28;;;;;;;6.94;61.71;100645.53;4992387;28;20042;-75
2021/03/28 04:59:21;;;;;;;9.88;2.80;;;;;;;6.97;61.82;100653.34;4991828;28;20057;-75
2021/03/28 05:02:20;;;;;;;9.20;2.63;;;;;;;7.02;61.76;100651.50;4990222;28;20398;-75
2021/03/28 05:05:23;;;;;;;8.23;2.75;;;;;;;7.06;61.59;100651.41;4991689;28;20041;-76
2021/03/28 05:08:07;;;;;;;6.03;3.00;;;;;;;7.12;61.43;100652.19;4991699;28;20077;-75
2021/03/28 05:11:10;;;;;;;7.75;2.67;;;;;;;7.15;61.37;100650.34;4991879;28;20034;-75
2021/03/28 05:14:21;;;;;;;5.38;2.17;;;;;;;7.18;61.37;100654.66;4991616;28;20225;-75
2021/03/28 05:17:09;;;;;;;8.20;3.30;;;;;;;7.16;61.42;100662.56;4991645;28;20407;-75
2021/03/28 05:20:15;;;;;;;7.15;2.53;;;;;;;7.20;61.19;100650.25;4990491;28;20126;-76
2021/03/28 05:22:59;;;;;;;9.20;3.42;;;;;;;7.23;61.11;100643.16;4991320;28;20505;-76
2021/03/28 05:25:45;;;;;;;9.25;2.97;;;;;;;7.27;61.18;100651.84;4991654;28;20113;-76
2021/03/28 05:28:13;;;;;;;10.73;2.75;;;;;;;7.29;61.18;100655.28;4990781;28;20038;-76
2021/03/28 05:30:57;;;;;;;9.27;2.88;;;;;;;7.34;60.90;100655.19;4989597;28;20088;-76
2021/03/28 05:33:59;;;;;;;5.75;2.63;;;;;;;7.36;61.11;100659.50;4990909;28;20074;-75
2021/03/28 05:36:43;;;;;;;9.85;3.42;;;;;;;7.40;60.60;100661.16;4990480;28;20415;-76
2021/03/28 05:39:23;;;;;;;11.73;2.92;;;;;;;7.42;60.75;100658.50;4989241;28;20037;-75
2021/03/28 05:42:07;;;;;;;8.65;2.72;;;;;;;7.43;60.78;100649.72;4989806;28;20116;-76
2021/03/28 05:44:55;;;;;;;5.75;2.63;;;;;;;7.45;60.63;100651.41;4988692;28;20045;-76
2021/03/28 05:47:51;;;;;;;6.32;2.40;;;;;;;7.53;60.48;100648.63;4991327;28;20576;-75
2021/03/28 05:50:26;;;;;;;;;;;;;;;7.55;60.14;100646.81;4990160;28;20085;-76
2021/03/28 05:53:05;;;;;;;10.65;4.18;;;;;;;7.55;60.52;100644.19;4991193;28;19980;-74
2021/03/28 05:56:08;;;;;;;10.57;3.65;;;;;;;7.64;60.10;100651.00;4990415;28;20379;-75
2021/03/28 05:58:47;;;;;;;9.75;3.72;;;;;;;7.69;60.08;100657.00;4990377;28;20752;-77
2021/03/28 06:01:26;;;;;;;11.18;4.35;;;;;;;7.73;59.97;100651.66;4990824;28;20129;-75
2021/03/28 06:04:23;;;;;;;13.23;2.97;;;;;;;7.79;59.46;100663.78;4990783;28;20034;-75
2021/03/28 06:07:30;;;;;;;8.77;3.00;;;;;;;7.83;59.59;100656.69;4989242;28;20034;-75
2021/03/28 06:10:07;;;;;;;;;;;;;;;7.84;59.58;100661.03;4990629;28;20027;-76
2021/03/28 06:12:58;;;;;;;8.50;2.45;;;;;;;7.86;59.59;100673.22;4989984;28;19914;-76
2021/03/28 06:16:05;;;;;;;10.80;2.72;;;;;;;7.93;59.16;100664.31;4989236;28;20524;-75
2021/03/28 06:18:52;;;;;;;9.45;2.35;;;;;;;8.02;58.85;100670.22;4962027;28;20070;-75
2021/03/28 06:21:30;;;;;;;10.70;3.03;;;;;;;8.04;58.71;100665.81;4994276;28;20034;-74
2021/03/28 06:24:27;;;;;;;12.15;3.00;;;;;;;8.09;58.49;100664.78;4994770;28;20061;-75
2021/03/28 06:27:20;;;;;;;6.05;2.33;;;;;;;8.14;58.64;100670.78;4993168;28;20037;-76
2021/03/28 06:30:19;;;;;;;14.07;3.72;;;;;;;8.18;58.67;100672.44;4990018;28;20049;-75
2021/03/28 06:33:07;;;;;;;9.23;2.97;;;;;;;8.23;58.68;100679.34;4990334;28;20490;-75
2021/03/28 06:35:53;;;;;;;19.67;4.35;;;;;;;8.28;58.71;100672.22;5000453;28;20417;-75
2021/03/28 06:38:55;;;;;;;8.20;2.90;;;;;;;8.36;58.00;100664.97;5009014;28;20068;-75
2021/03/28 06:41:44;;;;;;;8.20;3.28;;;;;;;8.44;57.96;100659.56;5007220;28;20034;-75
2021/03/28 06:44:47;;;;;;;8.75;3.08;;;;;;;8.55;57.59;100655.75;5010971;28;20102;-75
2021/03/28 06:47:25;;;;;;;7.43;3.80;;;;;;;8.59;57.85;100659.19;5008770;28;20528;-76
2021/03/28 06:50:12;;;;;;;6.43;3.28;;;;;;;8.68;57.70;100653.63;5009566;28;20038;-76
2021/03/28 06:52:49;;;;;;;13.25;4.22;;;;;;;8.64;57.59;100656.41;5010281;28;20088;-76
2021/03/28 06:55:34;;;;;;;8.13;3.08;;;;;;;8.74;57.82;100653.50;5009743;28;20026;-76
2021/03/28 06:58:27;;;;;;;11.18;2.35;;;;;;;8.98;56.52;100656.31;5009737;28;20057;-76
2021/03/28 07:00:52;;;;;;;15.73;3.83;;;;;;;9.37;55.23;100651.66;5010451;28;20037;-76
2021/03/28 07:03:40;;;;;;;7.07;3.33;;;;;;;9.97;53.64;100643.63;5009955;28;20026;-75
2021/03/28 07:06:05;;;;;;;10.75;4.18;;;;;;;10.00;53.50;100654.94;5007711;28;20037;-76
2021/03/28 07:08:48;;;;;;;10.20;3.30;;;;;;;10.21;52.94;100639.31;5011042;28;20145;-76
2021/03/28 07:11:24;;;;;;;10.55;3.13;;;;;;;10.63;51.78;100644.03;5022672;28;20437;-75
2021/03/28 07:13:55;;;;;;;9.25;3.25;;;;;;;11.00;50.94;100635.66;5011686;28;20045;-76
2021/03/28 07:16:39;;;;;;;9.13;3.10;;;;;;;11.32;50.44;100637.09;5014018;28;20083;-77
2021/03/28 07:19:26;;;;;;;6.15;2.55;;;;;;;11.68;49.34;100641.81;5006716;28;20087;-75
2021/03/28 07:22:22;;;;;;;11.02;3.33;;;;;;;12.03;48.20;100639.53;5014615;28;20117;-77
2021/03/28 07:25:09;;;;;;;6.70;2.75;;;;;;;12.43;47.26;100640.53;5009397;28;20041;-76
2021/03/28 07:28:00;;;;;;;10.98;3.00;;;;;;;12.60;46.89;100647.69;4974896;28;20047;-75
2021/03/28 07:30:43;;;;;;;9.10;3.17;;;;;;;13.00;45.88;100636.22;4977189;28;20026;-76
2021/03/28 07:33:42;;;;;;;7.13;3.35;;;;;;;13.08;45.52;100642.00;4995905;28;20038;-78
2021/03/28 07:36:52;;;;;;;10.35;3.97;;;;;;;13.26;44.61;100642.94;4991985;28;20034;-76
2021/03/28 07:39:35;;;;;;;6.35;3.13;;;;;;;13.67;43.81;100645.44;4958624;28;20055;-76
2021/03/28 07:42:28;;;;;;;8.82;3.05;;;;;;;13.81;43.97;100641.25;4993902;28;20394;-76
2021/03/28 07:44:56;;;;;;;5.70;3.40;;;;;;;13.35;44.11;100647.00;4991840;28;20030;-75
2021/03/28 07:47:59;;;;;;;13.68;3.22;;;;;;;12.89;45.76;100657.84;4994078;28;20035;-77
2021/03/28 07:50:49;;;;;;;17.00;3.42;;;;;;;13.27;45.13;100665.88;4993027;28;20038;-77
2021/03/28 07:53:18;;;;;;;9.48;3.13;;;;;;;13.56;44.17;100665.44;5013255;28;20030;-76
2021/03/28 07:56:15;;;;;;;8.90;3.05;;;;;;;14.00;43.63;100657.97;4997301;28;20413;-76
2021/03/28 07:58:47;;;;;;;18.45;4.20;;;;;;;13.82;43.58;100661.56;4995685;28;20046;-76
2021/03/28 08:01:25;;;;;;;9.30;3.92;;;;;;;14.22;42.76;100663.06;4993253;28;20035;-77
2021/03/28 08:04:03;;;;;;;11.23;3.95;;;;;;;14.35;42.78;100656.22;4994139;28;20093;-76
2021/03/28 08:06:57;;;;;;;10.27;3.65;;;;;;;14.65;41.94;100662.72;4974167;28;20104;-76
2021/03/28 08:10:06;;;;;;;11.20;3.28;;;;;;;15.11;41.10;100658.50;4993120;28;20035;-76
2021/03/28 08:12:57;;;;;;;12.98;3.75;;;;;;;15.23;40.46;100671.09;5011617;28;20370;-77
2021/03/28 08:15:36;;;;;;;10.52;4.55;;;;;;;15.52;39.53;100667.78;4991786;28;20038;-75
2021/03/28 08:18:13;;;;;;;7.78;3.28;;;;;;;16.09;38.98;100668.94;4993813;28;20034;-76
2021/03/28 08:20:42;;;;;;;11.95;3.40;;;;;;;15.73;39.47;100673.72;4991976;28;20050;-77
2021/03/28 08:23:51;;;;;;;12.45;3.25;;;;;;;15.37;39.72;100661.50;4992084;28;20124;-77
2021/03/28 08:26:26;;;;;;;13.43;3.80;;;;;;;15.02;40.71;100662.50;4977318;28;20035;-76
2021/03/28 08:29:10;;;;;;;12.00;3.37;;;;;;;14.93;40.96;100656.81;4993274;28;20035;-75
2021/03/28 08:31:41;;;;;;;10.88;4.18;;;;;;;14.64;40.96;100663.66;4991672;28;20038;-77
2021/03/28 08:34:27;;;;;;;10.77;3.35;;;;;;;14.62;41.51;100663.75;4993550;28;20398;-75
2021/03/28 08:36:58;;;;;;;6.28;2.97;;;;;;;14.48;41.65;100672.38;4993439;28;20038;-76
2021/03/28 08:39:37;;;;;;;8.32;3.88;;;;;;;14.21;42.66;100666.69;4992406;28;20092;-76
2021/03/28 08:42:38;;;;;;;9.18;3.35;;;;;;;13.90;42.63;100676.13;4973731;28;20538;-76
2021/03/28 08:45:25;;;;;;;11.05;3.40;;;;;;;13.82;43.06;100667.69;4972053;28;20507;-77
2021/03/28 08:48:12;;;;;;;10.93;3.90;;;;;;;13.78;43.12;100683.81;4972673;28;20039;-75
2021/03/28 08:51:02;;;;;;;13.90;3.78;;;;;;;13.61;43.23;100680.22;4972938;28;20042;-76
2021/03/28 08:53:30;;;;;;;10.90;3.92;;;;;;;13.62;43.75;100686.38;4957339;28;20532;-76
2021/03/28 08:56:26;;;;;;;11.40;3.20;;;;;;;14.45;41.62;100676.97;4972883;28;20449;-76
2021/03/28 08:59:10;;;;;;;13.82;3.63;;;;;;;14.43;41.95;100676.22;4986010;28;20069;-76
2021/03/28 09:01:50;;;;;;;13.05;3.17;;;;;;;14.50;41.07;100685.56;4987927;28;20089;-77
2021/03/28 09:04:49;;;;;;;10.73;4.00;;;;;;;14.77;40.71;100676.22;4974014;28;20027;-77
2021/03/28 09:07:33;;;;;;;7.30;3.60;;;;;;;14.45;41.14;100676.97;4972774;28;20097;-75
2021/03/28 09:10:38;;;;;;;10.32;3.92;;;;;;;14.93;39.54;100672.75;4972225;28;20124;-77
2021/03/28 09:13:13;;;;;;;8.77;3.45;;;;;;;15.57;38.65;100682.50;4967590;28;20035;-77
2021/03/28 09:16:00;;;;;;;11.15;3.83;;;;;;;15.93;37.43;100676.09;4953273;28;20383;-75
2021/03/28 09:18:44;;;;;;;9.15;3.40;;;;;;;16.48;37.10;100675.53;4953157;28;20138;-76
2021/03/28 09:21:29;;;;;;;10.25;3.30;;;;;;;16.87;35.95;100668.78;4972385;28;20041;-76
2021/03/28 09:24:28;;;;;;;9.52;3.50;;;;;;;17.14;34.88;100674.22;4987556;28;20057;-77
2021/03/28 09:27:22;;;;;;;5.97;3.60;;;;;;;17.15;34.85;100673.28;4991617;28;20498;-76
2021/03/28 09:30:06;;;;;;;8.13;3.38;;;;;;;17.39;34.34;100670.00;4994461;28;20050;-76
2021/03/28 09:32:50;;;;;;;9.95;3.28;;;;;;;18.08;33.24;100673.56;4994959;28;20035;-76
2021/03/28 09:35:52;;;;;;;9.27;3.92;;;;;;;18.31;33.12;100650.69;4995955;28;20095;-75
2021/03/28 09:39:00;;;;;;;13.75;4.20;;;;;;;18.62;32.44;100659.25;4994200;28;20036;-77
2021/03/28 09:41:57;;;;;;;7.38;3.10;;;;;;;19.08;31.61;100658.75;5006941;28;20138;-77
2021/03/28 09:44:31;;;;;;;10.48;3.78;;;;;;;19.29;31.47;100656.34;4992067;28;20058;-76
2021/03/28 09:47:31;;;;;;;7.15;2.67;;;;;;;19.28;31.12;100665.34;4993131;28;20324;-76
2021/03/28 09:50:19;;;;;;;9.32;3.97;;;;;;;19.62;30.45;100642.34;4976818;28;20042;-78
2021/03/28 09:53:03;;;;;;;8.40;3.65;;;;;;;19.94;30.08;100650.72;4987992;28;20059;-76
2021/03/28 09:55:49;;;;;;;6.20;2.85;;;;;;;19.60;30.62;100633.59;4980653;28;20065;-78
2021/03/28 09:58:37;;;;;;;10.88;3.60;;;;;;;19.30;30.61;100628.66;4971508;28;20039;-77
2021/03/28 10:01:11;;;;;;;12.63;3.90;;;;;;;19.80;30.04;100634.81;4987901;28;20045;-76
2021/03/28 10:03:50;;;;;;;11.52;3.42;;;;;;;19.99;29.89;100636.97;4992131;28;20037;-77
2021/03/28 10:06:20;;;;;;;7.97;3.60;;;;;;;19.87;29.88;100643.25;4992405;28;20037;-77
2021/03/28 10:08:50;;;;;;;10.88;3.08;;;;;;;19.92;29.40;100639.25;5006430;28;20042;-77
2021/03/28 10:11:27;;;;;;;9.40;2.97;;;;;;;20.06;28.80;100638.22;4992259;28;20026;-77
2021/03/28 10:14:11;;;;;;;8.73;3.42;;;;;;;20.10;28.92;100644.19;4990309;28;20046;-76
2021/03/28 10:17:11;;;;;;;6.75;2.70;;;;;;;20.37;28.13;100650.13;4986896;28;20527;-77
2021/03/28 10:19:41;;;;;;;6.90;2.80;;;;;;;20.26;28.29;100662.66;4999908;28;20494;-76
2021/03/28 10:22:22;;;;;;;10.20;2.83;;;;;;;19.77;28.14;100648.44;5007757;28;20041;-76
2021/03/28 10:25:20;;;;;;;6.80;3.40;;;;;;;19.13;29.24;100671.78;4991963;28;20046;-77
2021/03/28 10:28:23;;;;;;;5.30;3.03;;;;;;;18.17;29.79;100664.94;4982851;28;20054;-76
2021/03/28 10:31:10;;;;;;;10.00;2.92;;;;;;;18.08;30.84;100670.88;4988601;28;20085;-77
2021/03/28 10:33:59;;;;;;;8.60;2.92;;;;;;;18.35;30.42;100680.66;4996490;28;20102;-77
2021/03/28 10:37:02;;;;;;;9.18;3.33;;;;;;;18.59;30.38;100679.00;4995800;28;20043;-77
2021/03/28 10:39:49;;;;;;;9.73;3.90;;;;;;;18.85;29.88;100673.69;4992823;28;20034;-77
2021/03/28 10:42:51;;;;;;;10.43;3.13;;;;;;;18.98;29.55;100663.88;4992592;28;20065;-77
2021/03/28 10:45:31;;;;;;;8.18;3.90;;;;;;;19.02;29.23;100661.84;4989413;28;20131;-77
2021/03/28 10:48:27;;;;;;;7.68;3.20;;;;;;;17.87;30.33;100677.63;4971503;28;20043;-77
2021/03/28 10:51:11;;;;;;;8.80;2.97;;;;;;;17.08;31.89;100671.06;4975002;28;20058;-77
2021/03/28 10:54:05;;;;;;;6.72;2.67;;;;;;;16.71;32.99;100667.97;4995436;28;20402;-78
2021/03/28 10:57:13;;;;;;;10.73;3.55;;;;;;;16.63;33.62;100662.25;4995303;28;20383;-75
2021/03/28 10:59:44;;;;;;;11.15;3.30;;;;;;;16.22;33.93;100660.25;4992857;28;20096;-76
2021/03/28 11:02:28;;;;;;;6.38;2.38;;;;;;;15.99;34.75;100656.28;4995605;28;20038;-75
2021/03/28 11:05:36;;;;;;;8.02;3.83;;;;;;;15.67;35.18;100651.81;4995828;28;20552;-75
2021/03/28 11:08:18;;;;;;;9.05;3.05;;;;;;;15.46;35.55;100645.91;4995736;28;20101;-76
2021/03/28 11:11:22;;;;;;;8.30;3.38;;;;;;;15.52;35.06;100649.16;4995512;28;20045;-75
2021/03/28 11:13:50;;;;;;;8.02;2.53;;;;;;;15.59;35.27;100647.88;4985993;28;20046;-75
2021/03/28 11:16:42;;;;;;;5.55;2.50;;;;;;;15.56;34.69;100650.72;4994369;28;20034;-76
2021/03/28 11:19:33;;;;;;;12.40;3.75;;;;;;;15.54;34.81;100648.13;4993021;28;20077;-76
2021/03/28 11:22:26;;;;;;;7.80;2.88;;;;;;;15.42;33.85;100648.81;4992759;28;20031;-76
2021/03/28 11:24:51;;;;;;;6.45;2.58;;;;;;;15.19;34.05;100655.41;4993614;28;20524;-76
2021/03/28 11:27:38;;;;;;;9.25;2.55;;;;;;;15.28;34.36;100654.88;4997860;28;20121;-76
2021/03/28 11:30:31;;;;;;;11.10;2.45;;;;;;;15.23;34.50;100655.16;4999593;28;20034;-76
2021/03/28 11:33:18;;;;;;;13.55;3.22;;;;;;;15.45;34.75;100652.16;4995614;28;20030;-76
2021/03/28 11:36:08;;;;;;;11.07;3.13;;;;;;;15.49;34.37;100642.22;4997036;28;20524;-76
2021/03/28 11:38:40;;;;;;;8.10;3.35;;;;;;;15.62;34.49;100642.38;5018638;28;20100;-77
2021/03/28 11:41:11;;;;;;;11.15;4.30;;;;;;;15.50;34.32;100638.63;5015417;28;20034;-78
2021/03/28 11:43:41;;;;;;;7.13;2.55;;;;;;;15.38;34.75;100652.59;5016550;28;20037;-77
2021/03/28 11:46:17;;;;;;;5.63;2.83;;;;;;;15.35;34.23;100663.38;5015924;28;20030;-77
2021/03/28 11:49:03;;;;;;;6.38;2.30;;;;;;;15.18;34.79;100665.16;5015900;28;20410;-77
2021/03/28 11:51:36;;;;;;;9.70;3.33;;;;;;;15.07;35.54;100661.38;5018721;28;20034;-76
2021/03/28 11:54:14;;;;;;;6.72;2.90;;;;;;;15.00;35.94;100661.69;5013651;28;20045;-76
2021/03/28 11:56:49;;;;;;;14.98;3.75;;;;;;;15.16;35.54;100651.13;5007020;28;20072;-76
2021/03/28 11:59:17;;;;;;;8.30;2.92;;;;;;;15.19;35.52;100652.75;5025386;28;20038;-77
2021/03/28 12:01:55;;;;;;;22.73;3.72;;;;;;;15.11;35.86;100654.94;5010274;28;20061;-76
2021/03/28 12:04:30;;;;;;;9.43;3.53;;;;;;;15.21;34.98;100651.72;5012934;28;20060;-76
2021/03/28 12:07:33;;;;;;;5.40;2.80;;;;;;;15.29;34.89;100650.47;5012825;28;20073;-76
2021/03/28 12:09:58;;;;;;;6.90;3.00;;;;;;;15.29;35.29;100653.13;5007745;28;20451;-75
2021/03/28 12:12:33;;;;;;;7.07;2.92;;;;;;;15.22;33.70;100656.09;5012676;28;20057;-74
2021/03/28 12:15:35;;;;;;;5.13;2.33;;;;;;;15.30;33.35;100647.69;5011867;28;20033;-77
2021/03/28 12:18:31;;;;;;;7.00;3.22;;;;;;;15.40;33.73;100650.69;5008176;28;20041;-76
2021/03/28 12:20:59;;;;;;;7.35;2.95;;;;;;;15.39;33.59;100652.50;4998420;28;20058;-77
2021/03/28 12:23:27;;;;;;;9.52;2.88;;;;;;;15.40;33.77;100662.19;5013904;28;20643;-78
2021/03/28 12:26:07;;;;;;;7.05;2.85;;;;;;;15.30;34.20;100644.19;5012206;28;20049;-77
2021/03/28 12:28:47;;;;;;;6.50;2.63;;;;;;;15.36;34.23;100657.16;5011611;28;20053;-77
2021/03/28 12:31:28;;;;;;;14.93;3.90;;;;;;;15.57;34.05;100649.75;5014230;28;20037;-77
2021/03/28 12:34:09;;;;;;;8.15;2.72;;;;;;;15.59;33.56;100651.41;5014757;28;20052;-77
2021/03/28 12:36:53;;;;;;;8.75;2.90;;;;;;;15.56;33.87;100651.56;5005773;28;20041;-76
2021/03/28 12:39:33;;;;;;;17.10;2.90;;;;;;;15.61;33.74;100638.88;5006094;28;20053;-77
2021/03/28 12:42:01;;;;;;;7.63;2.53;;;;;;;15.57;34.37;100628.50;5011941;28;20030;-77
2021/03/28 12:44:41;;;;;;;11.48;3.00;;;;;;;15.61;34.12;100646.00;5012583;28;20061;-77
2021/03/28 12:47:13;;;;;;;12.13;3.25;;;;;;;15.42;33.92;100633.72;4991792;28;20042;-76
2021/03/28 12:49:48;;;;;;;12.90;3.40;;;;;;;15.31;33.86;100621.97;4993133;28;20513;-75